createdAt,value
2023-05-10T00:00:24.901Z,11.42
2023-05-10T00:03:28.077Z,11.42
2023-05-10T00:06:31.367Z,11.35
2023-05-10T00:09:34.566Z,11.36
2023-05-10T00:12:37.777Z,11.32
2023-05-10T00:15:41.034Z,11.26
2023-05-10T00:18:43.845Z,11.24
2023-05-10T00:21:47.644Z,11.22
2023-05-10T00:24:50.143Z,11.22
2023-05-10T00:27:56.137Z,11.18
2023-05-10T00:30:58.761Z,11.17
2023-05-10T00:34:02.782Z,11.20
2023-05-10T00:37:05.746Z,11.16
2023-05-10T00:40:09.521Z,11.15
2023-05-10T00:43:12.254Z,11.12
2023-05-10T00:46:16.884Z,11.10
2023-05-10T00:49:30.190Z,11.12
2023-05-10T00:52:33.802Z,11.05
2023-05-10T00:55:37.092Z,11.03
2023-05-10T00:58:41.061Z,11.03
2023-05-10T01:01:47.254Z,11.02
2023-05-10T01:04:50.628Z,10.96
2023-05-10T01:07:53.125Z,10.98
2023-05-10T01:10:56.415Z,10.98
2023-05-10T01:13:59.838Z,10.95
2023-05-10T01:17:05.504Z,10.94
2023-05-10T01:20:11.606Z,10.95
2023-05-10T01:23:36.911Z,10.94
2023-05-10T01:26:58.261Z,10.88
2023-05-10T01:30:15.300Z,10.82
2023-05-10T01:33:31.058Z,10.77
2023-05-10T01:36:56.160Z,10.86
2023-05-10T01:40:06.624Z,10.82
2023-05-10T01:43:18.718Z,10.74
2023-05-10T01:46:38.451Z,10.74
2023-05-10T01:49:51.760Z,10.73
2023-05-10T01:52:59.308Z,10.77
2023-05-10T01:56:03.840Z,10.81
2023-05-10T01:59:12.286Z,10.82
2023-05-10T02:02:17.832Z,10.92
2023-05-10T02:05:21.463Z,10.94
2023-05-10T02:08:25.950Z,10.98
2023-05-10T02:11:35.654Z,11.03
2023-05-10T02:14:40.176Z,10.97
2023-05-10T02:17:44.456Z,10.96
2023-05-10T02:20:56.641Z,10.96
2023-05-10T02:24:01.848Z,10.91
2023-05-10T02:27:07.270Z,10.89
2023-05-10T02:30:12.062Z,10.87
2023-05-10T02:33:15.445Z,10.84
2023-05-10T02:36:22.105Z,10.81
2023-05-10T02:39:27.197Z,10.78
2023-05-10T02:42:33.715Z,10.72
2023-05-10T02:45:40.425Z,10.69
2023-05-10T02:48:44.569Z,10.63
2023-05-10T02:51:52.016Z,10.58
2023-05-10T02:55:04.114Z,10.52
2023-05-10T02:58:08.881Z,10.46
2023-05-10T03:01:11.999Z,10.42
2023-05-10T03:04:14.589Z,10.34
2023-05-10T03:07:20.541Z,10.30
2023-05-10T03:10:30.631Z,10.24
2023-05-10T03:13:50.153Z,10.16
2023-05-10T03:17:17.597Z,10.11
2023-05-10T03:20:30.303Z,10.09
2023-05-10T03:23:42.193Z,10.02
2023-05-10T03:26:46.680Z,9.98
2023-05-10T03:29:52.372Z,9.93
2023-05-10T03:32:55.562Z,9.84
2023-05-10T03:36:00.235Z,9.87
2023-05-10T03:39:03.847Z,9.85
2023-05-10T03:42:07.120Z,9.88
2023-05-10T03:45:10.733Z,9.87
2023-05-10T03:48:14.793Z,9.87
2023-05-10T03:51:19.317Z,9.88
2023-05-10T03:54:24.201Z,9.84
2023-05-10T03:57:28.498Z,9.82
2023-05-10T04:00:32.040Z,9.81
2023-05-10T04:03:41.592Z,9.82
2023-05-10T04:06:45.082Z,9.82
2023-05-10T04:09:48.546Z,9.81
2023-05-10T04:12:54.871Z,9.83
2023-05-10T04:15:58.906Z,9.81
2023-05-10T04:19:06.556Z,9.85
2023-05-10T04:22:10.437Z,9.85
2023-05-10T04:25:13.977Z,9.86
2023-05-10T04:28:16.908Z,9.91
2023-05-10T04:31:20.648Z,10.15
2023-05-10T04:34:27.523Z,10.42
2023-05-10T04:37:34.896Z,10.58
2023-05-10T04:40:38.992Z,10.75
2023-05-10T04:43:42.495Z,10.99
2023-05-10T04:46:46.808Z,11.23
2023-05-10T04:49:51.080Z,11.32
2023-05-10T04:53:01.678Z,11.52
2023-05-10T04:56:06.682Z,11.48
2023-05-10T04:59:09.944Z,11.51
2023-05-10T05:02:15.064Z,11.59
2023-05-10T05:05:19.474Z,11.53
2023-05-10T05:08:29.888Z,11.75
2023-05-10T05:11:34.214Z,12.19
2023-05-10T05:14:37.645Z,12.27
2023-05-10T05:17:46.968Z,12.67
2023-05-10T05:20:52.223Z,12.73
2023-05-10T05:23:56.398Z,12.87
2023-05-10T05:26:59.101Z,12.71
2023-05-10T05:30:03.324Z,12.52
2023-05-10T05:33:11.575Z,12.61
2023-05-10T05:36:14.931Z,12.82
2023-05-10T05:39:17.793Z,13.40
2023-05-10T05:42:23.077Z,14.11
2023-05-10T05:45:30.721Z,14.49
2023-05-10T05:48:34.084Z,14.72
2023-05-10T05:51:38.584Z,14.98
2023-05-10T05:54:42.284Z,15.68
2023-05-10T05:57:48.507Z,15.80
2023-05-10T06:00:56.672Z,16.35
2023-05-10T06:04:08.547Z,16.65
2023-05-10T06:07:11.517Z,17.11
2023-05-10T06:10:15.930Z,16.58
2023-05-10T06:13:24.040Z,16.29
2023-05-10T06:16:27.895Z,16.84
2023-05-10T06:19:35.945Z,16.65
2023-05-10T06:22:39.572Z,16.42
2023-05-10T06:25:47.467Z,16.04
2023-05-10T06:28:52.674Z,15.80
2023-05-10T06:31:55.757Z,15.97
2023-05-10T06:34:58.899Z,16.22
2023-05-10T06:38:02.711Z,16.56
2023-05-10T06:41:08.133Z,16.33
2023-05-10T06:44:17.443Z,16.85
2023-05-10T06:47:23.089Z,17.38
2023-05-10T06:50:32.074Z,16.15
2023-05-10T06:53:38.438Z,16.42
2023-05-10T06:56:41.347Z,16.21
2023-05-10T06:59:45.802Z,16.69
2023-05-10T07:02:50.236Z,16.60
2023-05-10T07:05:53.483Z,16.23
2023-05-10T07:08:58.498Z,15.83
2023-05-10T07:12:02.968Z,16.45
2023-05-10T07:15:09.699Z,16.60
2023-05-10T07:18:13.712Z,16.26
2023-05-10T07:21:16.878Z,16.28
2023-05-10T07:24:24.558Z,16.37
2023-05-10T07:27:37.475Z,17.31
2023-05-10T07:30:46.775Z,17.32
2023-05-10T07:33:51.682Z,17.64
2023-05-10T07:36:55.835Z,17.41
2023-05-10T07:40:00.449Z,17.57
2023-05-10T07:43:04.587Z,17.39
2023-05-10T07:46:11.277Z,17.62
2023-05-10T07:49:17.665Z,16.96
2023-05-10T07:52:22.427Z,16.48
2023-05-10T07:55:36.367Z,17.51
2023-05-10T07:58:42.924Z,17.64
2023-05-10T08:01:47.657Z,17.36
2023-05-10T08:04:51.099Z,16.56
2023-05-10T08:07:56.475Z,17.43
2023-05-10T08:11:01.039Z,17.26
2023-05-10T08:14:04.655Z,17.47
2023-05-10T08:17:07.472Z,17.26
2023-05-10T08:20:13.967Z,17.81
2023-05-10T08:23:23.547Z,18.25
2023-05-10T08:26:26.947Z,17.68
2023-05-10T08:29:38.618Z,17.47
2023-05-10T08:32:53.560Z,17.32
2023-05-10T08:35:57.603Z,18.64
2023-05-10T08:39:04.026Z,18.76
2023-05-10T08:42:09.714Z,18.49
2023-05-10T08:45:13.390Z,18.64
2023-05-10T08:48:18.140Z,17.97
2023-05-10T08:51:28.180Z,17.05
2023-05-10T08:54:33.442Z,18.41
2023-05-10T08:57:37.676Z,17.20
2023-05-10T09:00:41.921Z,16.90
2023-05-10T09:03:47.515Z,17.05
2023-05-10T09:06:53.635Z,17.90
2023-05-10T09:09:57.124Z,18.10
2023-05-10T09:13:02.447Z,18.02
2023-05-10T09:16:17.448Z,18.65
2023-05-10T09:19:36.908Z,18.74
2023-05-10T09:22:47.416Z,18.05
2023-05-10T09:26:05.588Z,18.08
2023-05-10T09:29:09.576Z,17.46
2023-05-10T09:32:13.795Z,18.80
2023-05-10T09:35:22.436Z,18.23
2023-05-10T09:38:27.374Z,17.90
2023-05-10T09:41:30.997Z,17.62
2023-05-10T09:44:35.305Z,18.62
2023-05-10T09:47:38.840Z,18.44
2023-05-10T09:50:43.016Z,18.49
2023-05-10T09:53:47.573Z,18.90
2023-05-10T09:56:52.720Z,19.60
2023-05-10T10:00:01.775Z,19.53
2023-05-10T10:03:09.608Z,18.74
2023-05-10T10:06:26.307Z,18.67
2023-05-10T10:09:35.587Z,19.34
2023-05-10T10:12:39.626Z,18.60
2023-05-10T10:15:44.595Z,19.56
2023-05-10T10:18:48.674Z,20.46
2023-05-10T10:21:52.697Z,20.06
2023-05-10T10:24:58.874Z,20.61
2023-05-10T10:28:16.569Z,20.67
2023-05-10T10:31:40.168Z,20.16
2023-05-10T10:34:45.400Z,19.78
2023-05-10T10:37:52.347Z,19.58
2023-05-10T10:41:27.759Z,18.96
2023-05-10T10:44:34.859Z,18.88
2023-05-10T10:47:48.804Z,18.81
2023-05-10T10:50:59.603Z,18.93
2023-05-10T10:54:11.612Z,19.78
2023-05-10T10:57:19.933Z,19.72
2023-05-10T11:00:41.982Z,19.32
2023-05-10T11:04:00.300Z,19.31
2023-05-10T11:07:18.573Z,18.37
2023-05-10T11:10:27.456Z,18.27
2023-05-10T11:13:36.001Z,18.29
2023-05-10T11:16:44.375Z,18.64
2023-05-10T11:20:15.548Z,20.22
2023-05-10T11:23:20.368Z,20.63
2023-05-10T11:26:27.267Z,20.08
2023-05-10T11:29:34.512Z,19.89
2023-05-10T11:32:40.540Z,20.42
2023-05-10T11:35:46.680Z,20.42
2023-05-10T11:38:50.058Z,20.07
2023-05-10T11:41:54.179Z,19.57
2023-05-10T11:44:58.979Z,19.42
2023-05-10T11:48:08.364Z,18.99
2023-05-10T11:51:22.704Z,18.98
2023-05-10T11:54:41.405Z,18.90
2023-05-10T11:57:47.097Z,19.62
2023-05-10T12:00:52.225Z,19.25
2023-05-10T12:04:00.773Z,19.12
2023-05-10T12:07:10.940Z,18.75
2023-05-10T12:10:23.802Z,18.60
2023-05-10T12:13:27.692Z,18.86
2023-05-10T12:16:34.711Z,18.53
2023-05-10T12:19:42.554Z,18.67
2023-05-10T12:23:00.508Z,18.91
2023-05-10T12:26:05.396Z,19.00
2023-05-10T12:29:17.412Z,18.74
2023-05-10T12:32:23.522Z,18.98
2023-05-10T12:35:39.038Z,18.96
2023-05-10T12:38:49.766Z,19.26
2023-05-10T12:41:53.800Z,19.52
2023-05-10T12:45:00.839Z,19.47
2023-05-10T12:48:07.681Z,19.73
2023-05-10T12:51:17.729Z,19.58
2023-05-10T12:54:29.042Z,19.55
2023-05-10T12:57:36.817Z,19.41
2023-05-10T13:00:48.335Z,19.18
2023-05-10T13:03:55.802Z,19.98
2023-05-10T13:07:00.139Z,20.10
2023-05-10T13:10:05.694Z,20.04
2023-05-10T13:13:17.504Z,19.86
2023-05-10T13:16:20.482Z,19.59
2023-05-10T13:19:33.711Z,19.62
2023-05-10T13:22:49.184Z,19.85
2023-05-10T13:25:53.928Z,20.14
2023-05-10T13:28:57.969Z,20.17
2023-05-10T13:32:04.541Z,19.69
2023-05-10T13:35:08.950Z,19.44
2023-05-10T13:38:15.691Z,19.45
2023-05-10T13:41:21.715Z,19.22
2023-05-10T13:44:27.415Z,19.41
2023-05-10T13:47:33.572Z,19.17
2023-05-10T13:50:43.419Z,19.28
2023-05-10T13:53:48.240Z,19.67
2023-05-10T13:56:54.572Z,19.72
2023-05-10T14:00:00.713Z,19.66
2023-05-10T14:03:12.426Z,19.64
2023-05-10T14:06:16.752Z,19.66
2023-05-10T14:09:29.750Z,20.03
2023-05-10T14:12:39.971Z,20.40
2023-05-10T14:15:52.548Z,20.19
2023-05-10T14:19:04.203Z,19.50
2023-05-10T14:22:19.300Z,19.43
2023-05-10T14:25:46.407Z,19.20
2023-05-10T14:29:09.924Z,19.10
2023-05-10T14:32:17.651Z,19.37
2023-05-10T14:35:25.741Z,19.97
2023-05-10T14:38:32.618Z,19.67
2023-05-10T14:41:40.224Z,19.67
2023-05-10T14:44:44.781Z,20.09
2023-05-10T14:47:51.503Z,20.14
2023-05-10T14:51:06.486Z,20.06
2023-05-10T14:54:12.516Z,20.14
2023-05-10T14:57:16.555Z,19.99
2023-05-10T15:00:32.519Z,20.46
2023-05-10T15:03:43.612Z,20.70
2023-05-10T15:07:00.816Z,20.63
2023-05-10T15:10:08.499Z,20.18
2023-05-10T15:13:20.125Z,19.78
2023-05-10T15:16:24.652Z,19.41
2023-05-10T15:19:30.470Z,19.07
2023-05-10T15:22:45.706Z,18.82
2023-05-10T15:25:56.894Z,18.75
2023-05-10T15:29:01.532Z,18.74
2023-05-10T15:32:05.527Z,18.69
2023-05-10T15:35:11.273Z,18.65
2023-05-10T15:38:19.464Z,18.63
2023-05-10T15:41:31.321Z,18.63
2023-05-10T15:44:40.532Z,18.58
2023-05-10T15:47:45.739Z,18.57
2023-05-10T15:50:59.514Z,18.57
2023-05-10T15:54:13.486Z,18.52
2023-05-10T15:57:17.017Z,18.52
2023-05-10T16:00:28.028Z,18.52
2023-05-10T16:03:31.871Z,18.49
2023-05-10T16:06:38.676Z,18.45
2023-05-10T16:09:51.747Z,18.48
2023-05-10T16:12:56.386Z,18.39
2023-05-10T16:16:05.709Z,18.41
2023-05-10T16:19:16.245Z,18.43
2023-05-10T16:22:29.499Z,18.23
2023-05-10T16:25:41.530Z,18.18
2023-05-10T16:28:50.581Z,18.10
2023-05-10T16:32:08.429Z,18.10
2023-05-10T16:35:27.750Z,18.03
2023-05-10T16:38:35.536Z,17.94
2023-05-10T16:41:53.867Z,17.94
2023-05-10T16:44:57.971Z,17.98
2023-05-10T16:48:08.423Z,18.00
2023-05-10T16:51:20.467Z,18.00
2023-05-10T16:54:31.535Z,18.01
2023-05-10T16:57:42.948Z,18.03
2023-05-10T17:00:53.099Z,18.06
2023-05-10T17:03:57.705Z,18.00
2023-05-10T17:07:07.132Z,17.99
2023-05-10T17:10:15.557Z,17.97
2023-05-10T17:13:22.545Z,17.96
2023-05-10T17:16:38.549Z,17.89
2023-05-10T17:19:46.536Z,17.82
2023-05-10T17:23:09.422Z,17.74
2023-05-10T17:26:24.486Z,17.66
2023-05-10T17:29:43.433Z,17.59
2023-05-10T17:32:50.218Z,17.52
2023-05-10T17:36:01.533Z,17.42
2023-05-10T17:39:20.696Z,17.32
2023-05-10T17:42:27.362Z,17.21
2023-05-10T17:45:31.544Z,17.14
2023-05-10T17:48:37.152Z,17.05
2023-05-10T17:51:53.605Z,16.99
2023-05-10T17:54:56.916Z,16.90
2023-05-10T17:58:01.134Z,16.85
2023-05-10T18:01:09.772Z,16.73
2023-05-10T18:04:23.163Z,16.66
2023-05-10T18:07:27.218Z,16.58
2023-05-10T18:10:41.230Z,16.48
2023-05-10T18:13:56.486Z,16.39
2023-05-10T18:17:02.154Z,16.32
2023-05-10T18:20:06.266Z,16.25
2023-05-10T18:23:14.546Z,16.17
2023-05-10T18:26:29.585Z,16.12
2023-05-10T18:29:38.556Z,16.07
2023-05-10T18:32:41.847Z,15.97
2023-05-10T18:35:52.561Z,15.89
2023-05-10T18:39:15.541Z,15.84
2023-05-10T18:42:21.501Z,15.70
2023-05-10T18:45:29.873Z,15.66
2023-05-10T18:48:37.284Z,15.61
2023-05-10T18:51:42.027Z,15.51
2023-05-10T18:54:54.372Z,15.43
2023-05-10T18:58:09.550Z,15.37
2023-05-10T19:01:21.618Z,15.28
2023-05-10T19:04:38.805Z,15.22
2023-05-10T19:07:47.518Z,15.13
2023-05-10T19:10:56.537Z,15.05
2023-05-10T19:14:15.507Z,14.97
2023-05-10T19:17:25.521Z,14.88
2023-05-10T19:20:38.176Z,14.79
2023-05-10T19:23:43.323Z,14.72
2023-05-10T19:26:53.778Z,14.66
2023-05-10T19:30:01.809Z,14.63
2023-05-10T19:33:17.734Z,14.55
2023-05-10T19:36:26.724Z,14.54
2023-05-10T19:39:34.486Z,14.50
2023-05-10T19:42:46.714Z,14.44
2023-05-10T19:45:49.836Z,14.36
2023-05-10T19:48:58.210Z,14.33
2023-05-10T19:52:13.586Z,14.28
2023-05-10T19:55:30.480Z,14.25
2023-05-10T19:58:34.508Z,14.23
2023-05-10T20:01:47.509Z,14.18
2023-05-10T20:04:53.773Z,14.20
2023-05-10T20:07:56.523Z,14.16
2023-05-10T20:11:04.537Z,14.16
2023-05-10T20:14:12.586Z,14.16
2023-05-10T20:17:16.851Z,14.10
2023-05-10T20:20:27.188Z,14.09
2023-05-10T20:23:34.972Z,14.07
2023-05-10T20:26:42.004Z,14.01
2023-05-10T20:29:54.785Z,13.98
2023-05-10T20:33:05.621Z,13.94
2023-05-10T20:36:10.825Z,13.89
2023-05-10T20:39:16.004Z,13.92
2023-05-10T20:42:22.805Z,13.94
2023-05-10T20:45:35.390Z,13.90
2023-05-10T20:48:45.830Z,13.90
2023-05-10T20:51:53.998Z,13.88
2023-05-10T20:55:02.030Z,13.85
2023-05-10T20:58:08.433Z,13.83
2023-05-10T21:01:12.113Z,13.81
2023-05-10T21:04:22.584Z,13.77
2023-05-10T21:07:27.281Z,13.77
2023-05-10T21:10:34.464Z,13.75
2023-05-10T21:13:39.122Z,13.73
2023-05-10T21:16:42.077Z,13.73
2023-05-10T21:19:44.989Z,13.69
2023-05-10T21:22:48.886Z,13.68
2023-05-10T21:25:53.904Z,13.65
2023-05-10T21:28:56.702Z,13.63
2023-05-10T21:31:59.759Z,13.61
2023-05-10T21:35:04.303Z,13.63
2023-05-10T21:38:07.827Z,13.60
2023-05-10T21:41:12.007Z,13.60
2023-05-10T21:44:15.032Z,13.54
2023-05-10T21:47:17.498Z,13.52
2023-05-10T21:50:21.681Z,13.43
2023-05-10T21:53:24.233Z,13.35
2023-05-10T21:56:27.947Z,13.30
2023-05-10T21:59:33.740Z,13.24
2023-05-10T22:02:40.761Z,13.15
2023-05-10T22:05:44.128Z,13.09
2023-05-10T22:08:47.065Z,13.00
2023-05-10T22:11:50.387Z,13.01
2023-05-10T22:15:06.413Z,13.01
2023-05-10T22:18:12.006Z,13.05
2023-05-10T22:21:14.691Z,13.06
2023-05-10T22:24:17.596Z,13.06
2023-05-10T22:27:20.104Z,13.06
2023-05-10T22:30:33.387Z,13.07
2023-05-10T22:33:37.699Z,13.06
2023-05-10T22:36:40.738Z,13.03
2023-05-10T22:39:43.926Z,13.00
2023-05-10T22:42:46.601Z,12.98
2023-05-10T22:45:49.349Z,12.95
2023-05-10T22:48:53.187Z,12.93
2023-05-10T22:51:55.608Z,12.91
2023-05-10T22:54:58.333Z,12.89
2023-05-10T22:58:03.021Z,12.85
2023-05-10T23:01:05.768Z,12.81
2023-05-10T23:04:08.504Z,12.77
2023-05-10T23:07:11.810Z,12.74
2023-05-10T23:10:14.931Z,12.69
2023-05-10T23:13:18.832Z,12.66
2023-05-10T23:16:21.623Z,12.64
2023-05-10T23:19:24.687Z,12.54
2023-05-10T23:22:27.159Z,12.47
2023-05-10T23:25:30.102Z,12.46
2023-05-10T23:28:33.459Z,12.39
2023-05-10T23:31:37.304Z,12.32
2023-05-10T23:34:40.877Z,12.32
2023-05-10T23:37:44.250Z,12.27
2023-05-10T23:40:49.603Z,12.25
2023-05-10T23:43:52.371Z,12.26
2023-05-10T23:46:54.803Z,12.19
2023-05-10T23:49:57.517Z,12.16
2023-05-10T23:53:00.214Z,12.18
2023-05-10T23:56:03.275Z,12.14
2023-05-10T23:59:06.936Z,12.18
